createdAt,value
2023-03-29T00:00:24.274Z,70.90
2023-03-29T00:02:51.772Z,70.90
2023-03-29T00:05:25.446Z,71.00
2023-03-29T00:07:54.379Z,71.10
2023-03-29T00:10:24.034Z,71.10
2023-03-29T00:12:52.504Z,71.10
2023-03-29T00:15:20.548Z,71.10
2023-03-29T00:17:47.408Z,71.10
2023-03-29T00:20:14.466Z,71.10
2023-03-29T00:22:42.259Z,71.00
2023-03-29T00:25:11.015Z,71.00
2023-03-29T00:27:38.625Z,71.20
2023-03-29T00:30:07.291Z,71.00
2023-03-29T00:32:34.751Z,71.00
2023-03-29T00:35:01.596Z,71.10
2023-03-29T00:37:30.015Z,71.10
2023-03-29T00:39:57.822Z,71.20
2023-03-29T00:42:26.197Z,71.20
2023-03-29T00:45:19.342Z,71.20
2023-03-29T00:47:50.704Z,71.20
2023-03-29T00:50:29.719Z,71.20
2023-03-29T00:53:34.204Z,72.10
2023-03-29T00:56:14.003Z,71.10
2023-03-29T00:59:04.873Z,71.20
2023-03-29T01:01:54.998Z,71.20
2023-03-29T01:05:05.654Z,71.20
2023-03-29T01:07:35.422Z,71.30
2023-03-29T01:10:19.541Z,71.30
2023-03-29T01:12:54.797Z,71.20
2023-03-29T01:15:27.710Z,72.20
2023-03-29T01:17:58.070Z,71.40
2023-03-29T01:20:34.271Z,71.40
2023-03-29T01:23:31.730Z,71.50
2023-03-29T01:26:24.975Z,71.90
2023-03-29T01:28:59.683Z,72.40
2023-03-29T01:31:31.142Z,71.70
2023-03-29T01:34:09.333Z,71.80
2023-03-29T01:37:09.691Z,71.90
2023-03-29T01:39:36.560Z,71.90
2023-03-29T01:42:28.665Z,71.80
2023-03-29T01:45:26.439Z,71.90
2023-03-29T01:48:06.475Z,71.80
2023-03-29T01:50:44.928Z,71.90
2023-03-29T01:53:22.444Z,71.90
2023-03-29T01:55:54.515Z,72.10
2023-03-29T01:58:26.419Z,72.10
2023-03-29T02:00:55.899Z,72.20
2023-03-29T02:03:27.366Z,72.20
2023-03-29T02:05:56.736Z,72.30
2023-03-29T02:08:24.615Z,72.40
2023-03-29T02:10:51.905Z,72.40
2023-03-29T02:13:22.284Z,72.50
2023-03-29T02:15:49.376Z,72.60
2023-03-29T02:18:18.542Z,72.60
2023-03-29T02:20:49.103Z,72.90
2023-03-29T02:23:23.490Z,73.00
2023-03-29T02:25:53.666Z,72.80
2023-03-29T02:28:22.647Z,72.80
2023-03-29T02:30:56.239Z,73.00
2023-03-29T02:33:32.621Z,73.00
2023-03-29T02:36:08.099Z,73.10
2023-03-29T02:38:35.813Z,73.20
2023-03-29T02:41:03.949Z,73.20
2023-03-29T02:43:32.771Z,73.30
2023-03-29T02:46:00.169Z,73.30
2023-03-29T02:48:30.760Z,73.40
2023-03-29T02:51:20.282Z,73.40
2023-03-29T02:54:01.734Z,73.40
2023-03-29T02:56:28.755Z,73.40
2023-03-29T02:59:04.117Z,73.40
2023-03-29T03:01:31.035Z,73.60
2023-03-29T03:03:58.441Z,73.50
2023-03-29T03:06:28.282Z,73.50
2023-03-29T03:08:55.097Z,73.40
2023-03-29T03:11:22.630Z,73.40
2023-03-29T03:13:49.516Z,73.40
2023-03-29T03:16:16.403Z,73.40
2023-03-29T03:18:45.835Z,73.60
2023-03-29T03:21:13.363Z,73.50
2023-03-29T03:23:40.435Z,73.60
2023-03-29T03:26:08.606Z,73.60
2023-03-29T03:28:35.369Z,73.60
2023-03-29T03:31:02.547Z,73.60
2023-03-29T03:33:29.389Z,73.60
2023-03-29T03:36:06.713Z,73.50
2023-03-29T03:38:33.878Z,73.60
2023-03-29T03:41:01.466Z,73.50
2023-03-29T03:43:29.081Z,73.50
2023-03-29T03:45:56.477Z,73.40
2023-03-29T03:48:24.461Z,73.40
2023-03-29T03:50:57.012Z,73.40
2023-03-29T03:53:25.541Z,73.30
2023-03-29T03:55:55.824Z,73.30
2023-03-29T03:58:23.557Z,73.20
2023-03-29T04:00:54.859Z,73.10
2023-03-29T04:03:21.747Z,73.10
2023-03-29T04:05:48.756Z,73.00
2023-03-29T04:08:15.573Z,73.00
2023-03-29T04:10:42.537Z,72.90
2023-03-29T04:13:09.634Z,72.90
2023-03-29T04:15:38.606Z,72.80
2023-03-29T04:18:07.522Z,72.80
2023-03-29T04:20:34.684Z,72.80
2023-03-29T04:23:01.710Z,72.80
2023-03-29T04:25:28.914Z,72.80
2023-03-29T04:27:56.124Z,72.60
2023-03-29T04:30:23.407Z,72.60
2023-03-29T04:32:50.478Z,72.60
2023-03-29T04:35:17.924Z,72.70
2023-03-29T04:37:44.731Z,72.60
2023-03-29T04:40:14.222Z,72.60
2023-03-29T04:42:45.443Z,72.60
2023-03-29T04:45:19.325Z,72.50
2023-03-29T04:47:46.414Z,72.40
2023-03-29T04:50:13.885Z,72.50
2023-03-29T04:52:41.427Z,72.40
2023-03-29T04:55:09.265Z,72.40
2023-03-29T04:57:36.144Z,72.40
2023-03-29T05:00:14.190Z,72.40
2023-03-29T05:02:43.040Z,72.40
2023-03-29T05:05:13.277Z,72.40
2023-03-29T05:07:42.358Z,72.40
2023-03-29T05:10:12.271Z,72.40
2023-03-29T05:12:39.001Z,72.30
2023-03-29T05:15:06.316Z,72.30
2023-03-29T05:17:33.061Z,72.40
2023-03-29T05:20:00.977Z,72.30
2023-03-29T05:22:28.469Z,72.30
2023-03-29T05:24:55.219Z,72.50
2023-03-29T05:27:22.946Z,72.50
2023-03-29T05:29:49.742Z,72.50
2023-03-29T05:32:16.465Z,72.50
2023-03-29T05:34:45.392Z,72.50
2023-03-29T05:37:13.480Z,72.50
2023-03-29T05:39:40.163Z,72.40
2023-03-29T05:42:06.858Z,72.40
2023-03-29T05:44:33.744Z,72.50
2023-03-29T05:47:00.478Z,72.40
2023-03-29T05:49:30.411Z,72.40
2023-03-29T05:51:57.291Z,72.40
2023-03-29T05:54:24.948Z,72.40
2023-03-29T05:56:51.900Z,72.50
2023-03-29T05:59:23.620Z,72.50
2023-03-29T06:01:50.493Z,72.50
2023-03-29T06:04:18.240Z,72.40
2023-03-29T06:06:45.277Z,72.50
2023-03-29T06:09:12.530Z,72.60
2023-03-29T06:11:39.291Z,72.50
2023-03-29T06:14:06.286Z,72.50
2023-03-29T06:16:33.251Z,72.50
2023-03-29T06:19:02.475Z,72.60
2023-03-29T06:21:30.421Z,72.60
2023-03-29T06:23:57.604Z,72.50
2023-03-29T06:26:25.067Z,72.60
2023-03-29T06:28:52.432Z,72.60
2023-03-29T06:31:22.301Z,72.50
2023-03-29T06:33:49.439Z,72.50
2023-03-29T06:36:16.902Z,72.60
2023-03-29T06:38:44.271Z,72.60
2023-03-29T06:41:11.519Z,72.60
2023-03-29T06:43:44.856Z,72.60
2023-03-29T06:46:14.387Z,72.70
2023-03-29T06:48:41.456Z,72.60
2023-03-29T06:51:08.378Z,72.60
2023-03-29T06:53:35.527Z,72.60
2023-03-29T06:56:09.332Z,72.70
2023-03-29T06:58:36.301Z,72.70
2023-03-29T07:01:04.209Z,72.70
2023-03-29T07:03:31.565Z,72.80
2023-03-29T07:06:09.604Z,72.70
2023-03-29T07:08:43.284Z,72.70
2023-03-29T07:11:13.299Z,72.60
2023-03-29T07:13:43.872Z,72.60
2023-03-29T07:16:15.277Z,72.60
2023-03-29T07:18:43.969Z,72.70
2023-03-29T07:21:12.685Z,72.60
2023-03-29T07:23:40.748Z,71.60
2023-03-29T07:26:08.147Z,71.50
2023-03-29T07:28:37.448Z,71.50
2023-03-29T07:31:11.119Z,71.40
2023-03-29T07:33:38.692Z,71.50
2023-03-29T07:36:06.912Z,71.50
2023-03-29T07:38:34.366Z,71.60
2023-03-29T07:41:06.983Z,71.70
2023-03-29T07:43:34.455Z,71.60
2023-03-29T07:46:03.027Z,71.60
2023-03-29T07:48:30.121Z,71.60
2023-03-29T07:50:57.163Z,71.70
2023-03-29T07:53:24.458Z,71.70
2023-03-29T07:55:54.366Z,71.70
2023-03-29T07:58:21.777Z,71.70
2023-03-29T08:00:49.236Z,71.70
2023-03-29T08:03:16.922Z,71.90
2023-03-29T08:05:43.796Z,71.80
2023-03-29T08:08:10.940Z,71.90
2023-03-29T08:10:39.528Z,72.00
2023-03-29T08:13:08.334Z,71.90
2023-03-29T08:15:35.946Z,72.10
2023-03-29T08:18:02.823Z,72.20
2023-03-29T08:20:29.691Z,72.30
2023-03-29T08:22:57.153Z,72.40
2023-03-29T08:25:23.996Z,72.60
2023-03-29T08:27:50.795Z,72.60
2023-03-29T08:30:19.102Z,72.80
2023-03-29T08:32:49.315Z,73.00
2023-03-29T08:35:17.920Z,73.10
2023-03-29T08:37:44.690Z,73.30
2023-03-29T08:40:25.039Z,73.20
2023-03-29T08:43:10.135Z,73.30
2023-03-29T08:45:53.938Z,73.30
2023-03-29T08:48:28.741Z,73.10
2023-03-29T08:51:05.198Z,73.10
2023-03-29T08:53:45.235Z,73.10
2023-03-29T08:56:25.069Z,72.90
2023-03-29T08:58:53.803Z,72.90
2023-03-29T09:01:22.734Z,72.90
2023-03-29T09:04:08.947Z,73.10
2023-03-29T09:06:36.123Z,73.10
2023-03-29T09:09:03.538Z,73.10
2023-03-29T09:11:36.588Z,72.70
2023-03-29T09:14:21.963Z,72.50
2023-03-29T09:17:00.627Z,72.60
2023-03-29T09:19:53.065Z,72.30
2023-03-29T09:22:19.874Z,72.30
2023-03-29T09:24:46.746Z,72.30
2023-03-29T09:27:33.291Z,72.30
2023-03-29T09:30:28.535Z,72.20
2023-03-29T09:33:22.206Z,72.10
2023-03-29T09:35:59.437Z,72.10
2023-03-29T09:38:28.717Z,72.20
2023-03-29T09:41:08.897Z,72.10
2023-03-29T09:43:41.097Z,72.30
2023-03-29T09:46:21.785Z,72.20
2023-03-29T09:48:50.527Z,72.10
2023-03-29T09:51:22.699Z,72.90
2023-03-29T09:53:49.820Z,72.20
2023-03-29T09:56:16.916Z,72.40
2023-03-29T09:58:46.434Z,72.40
2023-03-29T10:01:17.386Z,72.60
2023-03-29T10:03:50.383Z,72.80
2023-03-29T10:06:19.255Z,72.70
2023-03-29T10:08:57.883Z,72.70
2023-03-29T10:11:35.113Z,73.10
2023-03-29T10:14:12.510Z,73.40
2023-03-29T10:16:42.082Z,73.40
2023-03-29T10:19:27.477Z,73.30
2023-03-29T10:21:55.204Z,73.20
2023-03-29T10:24:23.580Z,73.50
2023-03-29T10:26:57.064Z,73.50
2023-03-29T10:29:25.709Z,73.40
2023-03-29T10:31:53.200Z,73.40
2023-03-29T10:34:25.856Z,73.30
2023-03-29T10:37:01.140Z,73.40
2023-03-29T10:39:33.487Z,73.50
2023-03-29T10:42:03.255Z,73.90
2023-03-29T10:44:35.908Z,74.00
2023-03-29T10:47:16.993Z,74.10
2023-03-29T10:49:47.419Z,74.20
2023-03-29T10:52:17.173Z,74.20
2023-03-29T10:54:44.503Z,74.40
2023-03-29T10:57:19.862Z,74.70
2023-03-29T11:00:14.974Z,74.80
2023-03-29T11:03:02.518Z,75.60
2023-03-29T11:05:37.665Z,74.80
2023-03-29T11:08:04.488Z,74.90
2023-03-29T11:10:41.532Z,74.90
2023-03-29T11:13:23.531Z,75.90
2023-03-29T11:15:55.994Z,75.20
2023-03-29T11:18:47.433Z,75.20
2023-03-29T11:21:24.099Z,75.30
2023-03-29T11:24:41.625Z,75.10
2023-03-29T11:27:41.763Z,74.90
2023-03-29T11:30:22.396Z,74.80
2023-03-29T11:33:16.776Z,74.90
2023-03-29T11:35:43.534Z,75.00
2023-03-29T11:38:44.711Z,75.20
2023-03-29T11:41:15.647Z,75.20
2023-03-29T11:43:48.898Z,75.10
2023-03-29T11:46:37.718Z,75.30
2023-03-29T11:49:22.911Z,75.30
2023-03-29T11:52:17.566Z,75.50
2023-03-29T11:55:12.224Z,75.70
2023-03-29T11:57:45.621Z,75.30
2023-03-29T12:00:50.779Z,74.90
2023-03-29T12:03:40.116Z,74.70
2023-03-29T12:06:24.970Z,74.60
2023-03-29T12:09:16.640Z,74.20
2023-03-29T12:11:52.784Z,74.10
2023-03-29T12:14:45.564Z,73.90
2023-03-29T12:17:18.834Z,74.10
2023-03-29T12:20:13.334Z,74.00
2023-03-29T12:22:40.734Z,74.10
2023-03-29T12:25:12.844Z,74.30
2023-03-29T12:28:23.386Z,74.40
2023-03-29T12:31:01.212Z,74.40
2023-03-29T12:33:49.348Z,74.20
2023-03-29T12:36:51.925Z,74.20
2023-03-29T12:39:22.979Z,74.20
2023-03-29T12:41:51.988Z,73.90
2023-03-29T12:44:23.502Z,73.90
2023-03-29T12:47:00.473Z,73.60
2023-03-29T12:49:31.484Z,73.50
2023-03-29T12:52:01.586Z,73.50
2023-03-29T12:54:31.357Z,73.50
2023-03-29T12:57:02.189Z,73.50
2023-03-29T12:59:44.413Z,73.40
2023-03-29T13:02:14.080Z,73.20
2023-03-29T13:04:43.937Z,72.40
2023-03-29T13:07:27.742Z,72.40
2023-03-29T13:09:58.804Z,72.10
2023-03-29T13:12:32.170Z,72.80
2023-03-29T13:15:02.683Z,71.90
2023-03-29T13:17:56.705Z,72.00
2023-03-29T13:20:46.371Z,71.90
2023-03-29T13:23:19.172Z,71.80
2023-03-29T13:26:08.230Z,71.60
2023-03-29T13:28:43.935Z,71.50
2023-03-29T13:31:42.065Z,71.40
2023-03-29T13:34:21.497Z,71.10
2023-03-29T13:37:24.553Z,71.00
2023-03-29T13:39:53.515Z,71.00
2023-03-29T13:42:40.044Z,70.50
2023-03-29T13:45:25.456Z,70.30
2023-03-29T13:48:05.508Z,70.50
2023-03-29T13:50:52.223Z,70.40
2023-03-29T13:53:49.965Z,70.10
2023-03-29T13:56:23.226Z,70.10
2023-03-29T13:58:54.029Z,69.70
2023-03-29T14:01:26.790Z,69.70
2023-03-29T14:03:54.303Z,69.70
2023-03-29T14:06:29.239Z,69.60
2023-03-29T14:08:56.241Z,69.50
2023-03-29T14:11:29.843Z,69.60
2023-03-29T14:13:59.146Z,69.50
2023-03-29T14:16:37.385Z,69.50
2023-03-29T14:19:17.416Z,69.20
2023-03-29T14:21:44.813Z,69.20
2023-03-29T14:24:26.189Z,69.20
2023-03-29T14:26:54.353Z,69.10
2023-03-29T14:29:22.390Z,69.20
2023-03-29T14:31:51.089Z,69.20
2023-03-29T14:34:19.142Z,69.10
2023-03-29T14:36:48.986Z,69.20
2023-03-29T14:39:19.545Z,69.10
2023-03-29T14:41:59.518Z,69.40
2023-03-29T14:44:33.063Z,69.40
2023-03-29T14:47:01.484Z,69.30
2023-03-29T14:49:29.054Z,69.30
2023-03-29T14:51:57.201Z,69.00
2023-03-29T14:54:33.335Z,69.10
2023-03-29T14:57:03.601Z,69.20
2023-03-29T14:59:42.819Z,69.50
2023-03-29T15:02:30.736Z,69.20
2023-03-29T15:05:05.700Z,69.50
2023-03-29T15:07:34.613Z,69.30
2023-03-29T15:10:05.112Z,69.30
2023-03-29T15:12:33.534Z,69.20
2023-03-29T15:15:01.450Z,69.00
2023-03-29T15:17:51.216Z,69.00
2023-03-29T15:20:28.906Z,69.00
2023-03-29T15:22:58.365Z,69.00
2023-03-29T15:25:28.310Z,69.10
2023-03-29T15:28:00.186Z,68.80
2023-03-29T15:30:39.091Z,68.70
2023-03-29T15:33:19.850Z,68.20
2023-03-29T15:35:53.180Z,68.80
2023-03-29T15:38:25.449Z,68.80
2023-03-29T15:40:57.232Z,68.70
2023-03-29T15:43:24.582Z,68.60
2023-03-29T15:45:51.346Z,68.70
2023-03-29T15:48:24.048Z,68.70
2023-03-29T15:50:50.763Z,68.70
2023-03-29T15:53:28.665Z,68.70
2023-03-29T15:55:59.816Z,68.80
2023-03-29T15:58:32.451Z,68.80
2023-03-29T16:01:12.608Z,69.00
2023-03-29T16:03:40.108Z,69.10
2023-03-29T16:06:11.227Z,70.00
2023-03-29T16:08:38.110Z,69.20
2023-03-29T16:11:06.760Z,69.30
2023-03-29T16:13:33.525Z,69.50
2023-03-29T16:16:00.264Z,69.50
2023-03-29T16:18:27.170Z,69.70
2023-03-29T16:20:54.246Z,69.90
2023-03-29T16:23:20.999Z,70.00
2023-03-29T16:25:50.766Z,70.00
2023-03-29T16:28:17.377Z,70.00
2023-03-29T16:30:45.559Z,70.10
2023-03-29T16:33:15.310Z,70.20
2023-03-29T16:35:42.337Z,70.10
2023-03-29T16:38:09.654Z,70.10
2023-03-29T16:40:36.902Z,70.20
2023-03-29T16:43:03.804Z,70.30
2023-03-29T16:45:30.835Z,70.40
2023-03-29T16:47:57.688Z,70.50
2023-03-29T16:50:27.646Z,70.50
2023-03-29T16:52:54.444Z,70.50
2023-03-29T16:55:21.120Z,70.70
2023-03-29T16:57:48.496Z,70.70
2023-03-29T17:00:21.955Z,70.80
2023-03-29T17:02:51.608Z,70.90
2023-03-29T17:05:19.074Z,70.90
2023-03-29T17:07:46.152Z,71.10
2023-03-29T17:10:16.116Z,71.10
2023-03-29T17:12:42.765Z,71.20
2023-03-29T17:15:10.472Z,71.20
2023-03-29T17:17:37.818Z,71.20
2023-03-29T17:20:08.565Z,71.30
2023-03-29T17:22:35.984Z,71.40
2023-03-29T17:25:03.841Z,71.40
2023-03-29T17:27:30.978Z,71.50
2023-03-29T17:29:57.796Z,71.40
2023-03-29T17:32:24.725Z,71.40
2023-03-29T17:34:51.851Z,71.50
2023-03-29T17:37:20.642Z,71.60
2023-03-29T17:39:50.500Z,71.70
2023-03-29T17:42:17.305Z,71.70
2023-03-29T17:44:51.562Z,71.90
2023-03-29T17:47:18.385Z,71.90
2023-03-29T17:49:45.090Z,72.00
2023-03-29T17:52:11.739Z,72.10
2023-03-29T17:54:38.437Z,72.20
2023-03-29T17:57:05.537Z,72.40
2023-03-29T17:59:32.235Z,72.60
2023-03-29T18:02:05.263Z,72.60
2023-03-29T18:04:32.685Z,72.90
2023-03-29T18:07:02.038Z,73.10
2023-03-29T18:09:30.778Z,73.10
2023-03-29T18:11:57.747Z,73.30
2023-03-29T18:14:24.563Z,73.50
2023-03-29T18:16:51.257Z,73.50
2023-03-29T18:19:18.044Z,73.80
2023-03-29T18:21:44.929Z,73.90
2023-03-29T18:24:14.022Z,74.00
2023-03-29T18:26:40.685Z,74.20
2023-03-29T18:29:09.824Z,74.30
2023-03-29T18:31:36.720Z,74.50
2023-03-29T18:34:03.628Z,74.60
2023-03-29T18:36:30.443Z,74.80
2023-03-29T18:39:04.156Z,74.90
2023-03-29T18:41:31.257Z,75.00
2023-03-29T18:44:00.051Z,75.10
2023-03-29T18:46:30.486Z,75.30
2023-03-29T18:48:59.016Z,75.30
2023-03-29T18:51:30.549Z,75.40
2023-03-29T18:53:57.415Z,75.60
2023-03-29T18:56:24.132Z,75.60
2023-03-29T18:58:51.444Z,75.80
2023-03-29T19:01:18.373Z,75.80
2023-03-29T19:03:45.209Z,75.90
2023-03-29T19:06:12.241Z,75.90
2023-03-29T19:08:41.328Z,76.00
2023-03-29T19:11:11.751Z,76.20
2023-03-29T19:13:38.463Z,76.30
2023-03-29T19:16:05.918Z,76.40
2023-03-29T19:18:36.666Z,76.40
2023-03-29T19:21:03.859Z,76.50
2023-03-29T19:23:30.525Z,76.50
2023-03-29T19:26:00.262Z,76.70
2023-03-29T19:28:27.490Z,76.80
2023-03-29T19:30:55.419Z,76.80
2023-03-29T19:33:22.316Z,76.90
2023-03-29T19:35:52.859Z,76.80
2023-03-29T19:38:20.882Z,77.00
2023-03-29T19:40:49.824Z,77.00
2023-03-29T19:43:16.993Z,77.10
2023-03-29T19:45:44.667Z,77.20
2023-03-29T19:48:21.795Z,77.30
2023-03-29T19:50:52.468Z,77.40
2023-03-29T19:53:19.288Z,77.40
2023-03-29T19:55:45.987Z,78.50
2023-03-29T19:58:13.244Z,78.00
2023-03-29T20:00:41.818Z,77.80
2023-03-29T20:03:13.872Z,77.80
2023-03-29T20:05:41.107Z,77.80
2023-03-29T20:08:07.912Z,77.70
2023-03-29T20:10:35.831Z,77.70
2023-03-29T20:13:03.159Z,77.80
2023-03-29T20:15:29.959Z,77.80
2023-03-29T20:17:59.493Z,77.80
2023-03-29T20:20:27.390Z,77.80
2023-03-29T20:22:58.065Z,77.80
2023-03-29T20:25:25.944Z,77.80
2023-03-29T20:27:53.172Z,77.80
2023-03-29T20:30:20.328Z,77.80
2023-03-29T20:32:47.386Z,77.80
2023-03-29T20:35:14.331Z,77.80
2023-03-29T20:37:41.083Z,77.90
2023-03-29T20:40:09.258Z,77.80
2023-03-29T20:42:38.256Z,77.80
2023-03-29T20:45:05.796Z,77.80
2023-03-29T20:47:32.598Z,77.80
2023-03-29T20:50:01.609Z,77.90
2023-03-29T20:52:28.373Z,77.90
2023-03-29T20:54:55.157Z,77.90
2023-03-29T20:57:22.142Z,77.70
2023-03-29T20:59:49.353Z,77.70
2023-03-29T21:02:22.133Z,77.70
2023-03-29T21:04:51.755Z,77.80
2023-03-29T21:07:20.007Z,78.60
2023-03-29T21:09:52.799Z,78.00
2023-03-29T21:12:20.221Z,78.00
2023-03-29T21:14:47.485Z,78.00
2023-03-29T21:17:14.273Z,78.20
2023-03-29T21:19:41.479Z,77.80
2023-03-29T21:22:08.226Z,77.80
2023-03-29T21:24:36.563Z,77.70
2023-03-29T21:27:03.390Z,77.60
2023-03-29T21:29:30.235Z,77.50
2023-03-29T21:31:57.203Z,77.50
2023-03-29T21:34:24.132Z,77.50
2023-03-29T21:36:51.009Z,77.40
2023-03-29T21:39:17.715Z,77.40
2023-03-29T21:41:44.851Z,77.40
2023-03-29T21:44:11.683Z,77.40
2023-03-29T21:46:38.617Z,77.30
2023-03-29T21:49:05.583Z,77.30
2023-03-29T21:51:32.706Z,77.30
2023-03-29T21:53:59.405Z,77.20
2023-03-29T21:56:26.367Z,77.10
2023-03-29T21:58:53.244Z,77.10
2023-03-29T22:01:20.207Z,77.00
2023-03-29T22:03:47.624Z,76.80
2023-03-29T22:06:14.721Z,76.80
2023-03-29T22:08:41.887Z,76.70
2023-03-29T22:11:14.029Z,76.70
2023-03-29T22:13:41.762Z,76.60
2023-03-29T22:16:09.672Z,76.50
2023-03-29T22:18:44.081Z,76.40
2023-03-29T22:21:31.232Z,76.40
2023-03-29T22:23:59.940Z,76.20
2023-03-29T22:26:32.138Z,76.20
2023-03-29T22:29:00.104Z,76.20
2023-03-29T22:31:31.449Z,76.20
2023-03-29T22:33:58.497Z,76.00
2023-03-29T22:36:30.655Z,76.00
2023-03-29T22:38:57.797Z,75.80
2023-03-29T22:41:28.756Z,75.80
2023-03-29T22:43:59.911Z,75.90
2023-03-29T22:46:27.537Z,75.70
2023-03-29T22:48:54.371Z,75.60
2023-03-29T22:51:21.379Z,75.60
2023-03-29T22:53:48.166Z,75.50
2023-03-29T22:56:16.328Z,75.40
2023-03-29T22:58:43.967Z,75.30
2023-03-29T23:01:11.515Z,75.20
2023-03-29T23:03:38.234Z,75.20
2023-03-29T23:06:05.623Z,75.10
2023-03-29T23:08:33.785Z,75.10
2023-03-29T23:11:01.403Z,75.10
2023-03-29T23:13:29.264Z,75.00
2023-03-29T23:15:59.124Z,74.90
2023-03-29T23:18:28.417Z,74.90
2023-03-29T23:20:57.632Z,74.80
2023-03-29T23:23:25.963Z,74.80
2023-03-29T23:25:53.958Z,75.50
2023-03-29T23:28:23.399Z,74.60
2023-03-29T23:31:05.452Z,74.50
2023-03-29T23:33:35.324Z,74.40
2023-03-29T23:36:08.877Z,74.30
2023-03-29T23:38:37.456Z,74.30
2023-03-29T23:41:06.804Z,74.30
2023-03-29T23:43:37.299Z,74.20
2023-03-29T23:46:06.968Z,74.10
2023-03-29T23:48:34.454Z,74.10
2023-03-29T23:51:02.501Z,74.10
2023-03-29T23:53:32.434Z,74.10
2023-03-29T23:56:01.384Z,74.10
2023-03-29T23:58:29.802Z,74.10
